F/V Oceanie — FVBW — position and weather

sailwx.info

Track history (hours):
 
Tides and Currents Weather Stations Pressure Air Temp Water Temp Dewpoint Dewpoint Depression Visibility Wind Speed Wind Dir Waves Ship Positions

F/V Oceanie

Last reported at 2014-Aug-08 23:33 UTC. Time now 2014-Aug-22 05:54 UTC.
Position N 47°44' W 003°22'.
Warning: this ship's position is 13 days out of date.

Length 16 m.

Type: Fishing. MMSI: 228370000.

Date/timePositionNaut miles runAvg speedWind from/ knotsBaromVisibWave heightAir tempDewpointWater temp
2014-Aug-08 23:33N 47°44' W 003°22'5 4.9
2014-Aug-08 22:33N 47°40' W 003°27'11 0.5
2014-Aug-08 03:07N 47°35' W 003°41'5 9.0
2014-Aug-08 02:33N 47°38' W 003°35'9 8.9
2014-Aug-08 01:33N 47°42' W 003°23'2 2.1
2014-Aug-08 00:33N 47°44' W 003°22'6 5.8
2014-Aug-07 23:33N 47°38' W 003°22'9 8.9
2014-Aug-07 22:33N 47°29' W 003°20'8 0.4
2014-Aug-07 02:28N 47°22' W 003°18'8 9.1
2014-Aug-07 01:33N 47°30' W 003°20'9 9.2
2014-Aug-07 00:33N 47°39' W 003°22'4 4.1
2014-Aug-06 23:33N 47°43' W 003°22'9 9.0
2014-Aug-06 22:33N 47°34' W 003°21'9 8.7
2014-Aug-06 21:33N 47°25' W 003°19'6 0.3
2014-Aug-06 02:26N 47°19' W 003°19'7 8.4
2014-Aug-06 01:33N 47°27' W 003°20'8 8.4
2014-Aug-06 00:33N 47°35' W 003°21'9 8.7
2014-Aug-05 23:33N 47°44' W 003°22'1 1.5
2014-Aug-05 22:33N 47°42' W 003°22'9 9.1
2014-Aug-05 21:33N 47°33' W 003°22'9 9.1
2014-Aug-05 20:33N 47°24' W 003°21'2 0.0
2014-Aug-04 02:33N 47°25' W 003°19'8 8.4
2014-Aug-04 01:33N 47°33' W 003°21'9 8.9
2014-Aug-04 00:33N 47°42' W 003°22'2 0.0
2014-Aug-02 01:34N 47°44' W 003°22'0 0.1
2014-Aug-02 00:34N 47°44' W 003°22'3 2.8
2014-Aug-01 23:34N 47°41' W 003°22'9 8.9
2014-Aug-01 22:33N 47°32' W 003°22'9 8.7
2014-Aug-01 21:33N 47°23' W 003°21'12 0.7
2014-Aug-01 04:20N 47°12' W 003°23'7 9.3
2014-Aug-01 03:34N 47°19' W 003°22'9 9.2
2014-Aug-01 02:33N 47°28' W 003°22'9 9.1
2014-Aug-01 01:33N 47°37' W 003°22'7 6.7
2014-Aug-01 00:34N 47°44' W 003°22'8 7.7
2014-Jul-31 23:33N 47°36' W 003°22'9 8.8
2014-Jul-31 22:34N 47°27' W 003°22'9 8.7
2014-Jul-31 21:32N 47°18' W 003°21'5 0.3
2014-Jul-31 03:34N 47°23' W 003°23'9 9.0
2014-Jul-31 02:34N 47°32' W 003°22'9 9.0
2014-Jul-31 01:34N 47°41' W 003°22'3 2.6
2014-Jul-31 00:34N 47°43' W 003°22'9 9.1
2014-Jul-30 23:33N 47°34' W 003°22'9 8.9
2014-Jul-30 22:34N 47°25' W 003°22'9 9.0
2014-Jul-30 21:34N 47°16' W 003°21'6 0.3
2014-Jul-30 03:22N 47°22' W 003°23'7 8.8
2014-Jul-30 02:34N 47°29' W 003°23'9 8.8
2014-Jul-30 01:34N 47°38' W 003°22'6 5.8
2014-Jul-30 00:34N 47°44' W 003°22'7 6.7
2014-Jul-29 23:34N 47°37' W 003°22'  
Track history (hours):
 
Tides and Currents Weather Stations Pressure Air Temp Water Temp Dewpoint Dewpoint Depression Visibility Wind Speed Wind Dir Waves Ship Positions

F/V Oceanie

Last reported at 2014-Aug-08 23:33 UTC. Time now 2014-Aug-22 05:54 UTC.
Position N 47°44' W 003°22'.
Warning: this ship's position is 13 days out of date.

Length 16 m.

Type: Fishing. MMSI: 228370000.

Date/timePositionNaut miles runAvg speedWind from/ knotsBaromVisibWave heightAir tempDewpointWater temp
2014-Aug-08 23:33N 47°44' W 003°22'5 4.9
2014-Aug-08 22:33N 47°40' W 003°27'11 0.5
2014-Aug-08 03:07N 47°35' W 003°41'5 9.0
2014-Aug-08 02:33N 47°38' W 003°35'9 8.9
2014-Aug-08 01:33N 47°42' W 003°23'2 2.1
2014-Aug-08 00:33N 47°44' W 003°22'6 5.8
2014-Aug-07 23:33N 47°38' W 003°22'9 8.9
2014-Aug-07 22:33N 47°29' W 003°20'8 0.4
2014-Aug-07 02:28N 47°22' W 003°18'8 9.1
2014-Aug-07 01:33N 47°30' W 003°20'9 9.2
2014-Aug-07 00:33N 47°39' W 003°22'4 4.1
2014-Aug-06 23:33N 47°43' W 003°22'9 9.0
2014-Aug-06 22:33N 47°34' W 003°21'9 8.7
2014-Aug-06 21:33N 47°25' W 003°19'6 0.3
2014-Aug-06 02:26N 47°19' W 003°19'7 8.4
2014-Aug-06 01:33N 47°27' W 003°20'8 8.4
2014-Aug-06 00:33N 47°35' W 003°21'9 8.7
2014-Aug-05 23:33N 47°44' W 003°22'1 1.5
2014-Aug-05 22:33N 47°42' W 003°22'9 9.1
2014-Aug-05 21:33N 47°33' W 003°22'9 9.1
2014-Aug-05 20:33N 47°24' W 003°21'2 0.0
2014-Aug-04 02:33N 47°25' W 003°19'8 8.4
2014-Aug-04 01:33N 47°33' W 003°21'9 8.9
2014-Aug-04 00:33N 47°42' W 003°22'2 0.0
2014-Aug-02 01:34N 47°44' W 003°22'0 0.1
2014-Aug-02 00:34N 47°44' W 003°22'3 2.8
2014-Aug-01 23:34N 47°41' W 003°22'9 8.9
2014-Aug-01 22:33N 47°32' W 003°22'9 8.7
2014-Aug-01 21:33N 47°23' W 003°21'12 0.7
2014-Aug-01 04:20N 47°12' W 003°23'7 9.3
2014-Aug-01 03:34N 47°19' W 003°22'9 9.2
2014-Aug-01 02:33N 47°28' W 003°22'9 9.1
2014-Aug-01 01:33N 47°37' W 003°22'7 6.7
2014-Aug-01 00:34N 47°44' W 003°22'8 7.7
2014-Jul-31 23:33N 47°36' W 003°22'9 8.8
2014-Jul-31 22:34N 47°27' W 003°22'9 8.7
2014-Jul-31 21:32N 47°18' W 003°21'5 0.3
2014-Jul-31 03:34N 47°23' W 003°23'9 9.0
2014-Jul-31 02:34N 47°32' W 003°22'9 9.0
2014-Jul-31 01:34N 47°41' W 003°22'3 2.6
2014-Jul-31 00:34N 47°43' W 003°22'9 9.1
2014-Jul-30 23:33N 47°34' W 003°22'9 8.9
2014-Jul-30 22:34N 47°25' W 003°22'9 9.0
2014-Jul-30 21:34N 47°16' W 003°21'6 0.3
2014-Jul-30 03:22N 47°22' W 003°23'7 8.8
2014-Jul-30 02:34N 47°29' W 003°23'9 8.8
2014-Jul-30 01:34N 47°38' W 003°22'6 5.8
2014-Jul-30 00:34N 47°44' W 003°22'7 6.7
2014-Jul-29 23:34N 47°37' W 003°22'  

Dump ship's entire track history